createdAt,value
2023-03-22T00:01:23.928Z,16.90
2023-03-22T00:03:52.788Z,17.13
2023-03-22T00:06:20.412Z,17.93
2023-03-22T00:08:51.350Z,20.10
2023-03-22T00:11:20.647Z,19.23
2023-03-22T00:13:47.880Z,21.97
2023-03-22T00:16:15.616Z,20.37
2023-03-22T00:18:42.669Z,19.17
2023-03-22T00:21:15.811Z,18.60
2023-03-22T00:23:44.111Z,21.27
2023-03-22T00:26:13.333Z,24.07
2023-03-22T00:28:40.752Z,21.27
2023-03-22T00:31:09.240Z,27.00
2023-03-22T00:33:37.054Z,22.67
2023-03-22T00:36:08.691Z,26.80
2023-03-22T00:38:43.692Z,22.13
2023-03-22T00:41:19.688Z,20.50
2023-03-22T00:43:48.807Z,24.70
2023-03-22T00:46:18.418Z,24.90
2023-03-22T00:48:45.768Z,27.07
2023-03-22T00:51:14.974Z,27.23
2023-03-22T00:53:43.639Z,31.50
2023-03-22T00:56:15.787Z,33.97
2023-03-22T00:58:43.790Z,28.23
2023-03-22T01:01:14.039Z,29.23
2023-03-22T01:03:42.808Z,28.73
2023-03-22T01:06:11.104Z,29.70
2023-03-22T01:08:39.446Z,33.50
2023-03-22T01:11:08.502Z,28.00
2023-03-22T01:13:37.853Z,26.60
2023-03-22T01:16:07.155Z,27.97
2023-03-22T01:18:34.916Z,24.80
2023-03-22T01:21:02.244Z,24.10
2023-03-22T01:23:29.364Z,25.13
2023-03-22T01:25:56.366Z,21.27
2023-03-22T01:28:26.460Z,23.70
2023-03-22T01:30:55.192Z,23.03
2023-03-22T01:33:22.538Z,28.03
2023-03-22T01:35:49.596Z,22.97
2023-03-22T01:38:16.702Z,24.33
2023-03-22T01:40:43.856Z,22.97
2023-03-22T01:43:15.740Z,27.63
2023-03-22T01:45:46.399Z,25.47
2023-03-22T01:48:34.809Z,26.73
2023-03-22T01:51:20.613Z,27.23
2023-03-22T01:53:55.302Z,22.77
2023-03-22T01:56:25.989Z,28.33
2023-03-22T01:58:55.188Z,29.80
2023-03-22T02:01:23.889Z,26.20
2023-03-22T02:04:03.330Z,20.73
2023-03-22T02:06:32.439Z,17.60
2023-03-22T02:08:59.521Z,17.20
2023-03-22T02:11:33.506Z,17.03
2023-03-22T02:14:23.481Z,22.40
2023-03-22T02:17:15.573Z,16.10
2023-03-22T02:20:13.007Z,13.57
2023-03-22T02:23:07.132Z,13.37
2023-03-22T02:26:11.161Z,16.40
2023-03-22T02:28:58.509Z,19.90
2023-03-22T02:32:05.101Z,16.20
2023-03-22T02:35:02.949Z,13.87
2023-03-22T02:38:16.608Z,16.00
2023-03-22T02:40:49.272Z,15.47
2023-03-22T02:43:52.961Z,12.63
2023-03-22T02:46:34.700Z,14.17
2023-03-22T02:49:31.273Z,12.10
2023-03-22T02:52:17.556Z,15.27
2023-03-22T02:55:12.036Z,18.03
2023-03-22T02:58:40.144Z,21.47
2023-03-22T03:01:18.407Z,15.37
2023-03-22T03:03:52.581Z,13.80
2023-03-22T03:06:25.659Z,18.70
2023-03-22T03:08:54.530Z,14.17
2023-03-22T03:11:21.821Z,13.40
2023-03-22T03:13:49.862Z,11.93
2023-03-22T03:16:21.131Z,18.53
2023-03-22T03:18:56.215Z,16.40
2023-03-22T03:21:45.289Z,13.87
2023-03-22T03:24:18.923Z,10.90
2023-03-22T03:26:57.774Z,14.33
2023-03-22T03:29:46.724Z,13.67
2023-03-22T03:32:38.386Z,11.13
2023-03-22T03:35:23.066Z,16.43
2023-03-22T03:37:54.874Z,12.60
2023-03-22T03:40:36.378Z,10.97
2023-03-22T03:43:06.248Z,14.30
2023-03-22T03:45:34.992Z,10.87
2023-03-22T03:48:08.128Z,14.60
2023-03-22T03:50:35.351Z,14.03
2023-03-22T03:53:03.227Z,15.63
2023-03-22T03:55:31.673Z,18.23
2023-03-22T03:57:58.763Z,19.00
2023-03-22T04:00:25.756Z,10.73
2023-03-22T04:02:52.804Z,12.83
2023-03-22T04:05:19.911Z,11.20
2023-03-22T04:07:46.913Z,10.63
2023-03-22T04:10:14.026Z,14.20
2023-03-22T04:12:40.950Z,14.97
2023-03-22T04:15:09.012Z,14.73
2023-03-22T04:17:36.025Z,10.67
2023-03-22T04:20:06.028Z,12.63
2023-03-22T04:22:34.570Z,14.83
2023-03-22T04:25:02.021Z,15.67
2023-03-22T04:27:29.055Z,11.97
2023-03-22T04:29:56.180Z,12.03
2023-03-22T04:32:23.411Z,11.43
2023-03-22T04:34:51.808Z,12.27
2023-03-22T04:37:22.584Z,11.20
2023-03-22T04:39:49.534Z,12.63
2023-03-22T04:42:16.570Z,9.20
2023-03-22T04:44:43.629Z,8.53
2023-03-22T04:47:10.864Z,15.50
2023-03-22T04:49:38.236Z,10.07
2023-03-22T04:52:05.410Z,17.63
2023-03-22T04:54:33.111Z,16.93
2023-03-22T04:57:01.008Z,11.10
2023-03-22T04:59:28.065Z,19.30
2023-03-22T05:01:55.183Z,13.50
2023-03-22T05:04:22.811Z,14.87
2023-03-22T05:06:49.955Z,13.13
2023-03-22T05:09:17.310Z,10.77
2023-03-22T05:11:44.519Z,12.60
2023-03-22T05:14:11.958Z,18.10
2023-03-22T05:16:41.715Z,9.23
2023-03-22T05:19:14.803Z,14.73
2023-03-22T05:21:44.127Z,12.60
2023-03-22T05:24:11.963Z,11.87
2023-03-22T05:26:42.334Z,13.37
2023-03-22T05:29:11.187Z,17.77
2023-03-22T05:31:40.345Z,14.60
2023-03-22T05:34:08.157Z,16.63
2023-03-22T05:36:36.624Z,13.70
2023-03-22T05:39:04.381Z,13.43
2023-03-22T05:41:31.798Z,12.53
2023-03-22T05:43:58.797Z,11.57
2023-03-22T05:46:26.162Z,18.13
2023-03-22T05:48:53.337Z,11.07
2023-03-22T05:51:20.373Z,16.17
2023-03-22T05:53:48.537Z,16.77
2023-03-22T05:56:16.135Z,12.40
2023-03-22T05:59:32.182Z,13.97
2023-03-22T06:01:59.208Z,15.33
2023-03-22T06:04:26.164Z,13.43
2023-03-22T06:06:53.977Z,15.87
2023-03-22T06:09:21.366Z,16.53
2023-03-22T06:11:48.408Z,14.27
2023-03-22T06:14:15.948Z,13.80
2023-03-22T06:16:43.123Z,11.03
2023-03-22T06:19:10.378Z,13.77
2023-03-22T06:21:37.352Z,14.07
2023-03-22T06:24:05.034Z,15.33
2023-03-22T06:26:32.032Z,20.80
2023-03-22T06:28:59.283Z,12.37
2023-03-22T06:31:26.250Z,12.83
2023-03-22T06:33:55.791Z,13.13
2023-03-22T06:36:23.022Z,9.47
2023-03-22T06:38:49.980Z,8.00
2023-03-22T06:41:16.922Z,15.33
2023-03-22T06:43:43.974Z,14.57
2023-03-22T06:46:11.300Z,16.93
2023-03-22T06:48:38.411Z,11.43
2023-03-22T06:51:06.086Z,14.07
2023-03-22T06:53:33.176Z,13.80
2023-03-22T06:56:00.374Z,12.00
2023-03-22T06:58:27.463Z,13.67
2023-03-22T07:00:57.199Z,17.27
2023-03-22T07:03:24.425Z,14.13
2023-03-22T07:05:51.416Z,14.63
2023-03-22T07:08:18.372Z,12.90
2023-03-22T07:10:51.303Z,13.53
2023-03-22T07:13:18.346Z,14.30
2023-03-22T07:15:45.465Z,16.93
2023-03-22T07:18:12.778Z,14.27
2023-03-22T07:20:41.763Z,17.60
2023-03-22T07:23:10.887Z,10.00
2023-03-22T07:25:38.047Z,15.20
2023-03-22T07:28:06.996Z,13.87
2023-03-22T07:30:37.838Z,12.30
2023-03-22T07:33:07.222Z,20.53
2023-03-22T07:35:34.603Z,13.73
2023-03-22T07:38:01.781Z,14.80
2023-03-22T07:40:28.879Z,19.10
2023-03-22T07:42:56.114Z,16.97
2023-03-22T07:45:23.779Z,11.07
2023-03-22T07:47:50.796Z,13.67
2023-03-22T07:50:19.621Z,11.63
2023-03-22T07:52:47.393Z,16.87
2023-03-22T07:55:14.949Z,18.57
2023-03-22T07:57:42.065Z,12.00
2023-03-22T08:00:13.363Z,11.47
2023-03-22T08:02:40.447Z,12.93
2023-03-22T08:05:08.304Z,15.23
2023-03-22T08:07:35.360Z,17.57
2023-03-22T08:10:03.332Z,14.37
2023-03-22T08:12:32.484Z,11.80
2023-03-22T08:14:59.453Z,19.57
2023-03-22T08:17:26.652Z,10.63
2023-03-22T08:19:56.721Z,10.97
2023-03-22T08:22:29.945Z,15.43
2023-03-22T08:24:56.992Z,15.73
2023-03-22T08:27:24.015Z,13.10
2023-03-22T08:29:51.115Z,12.70
2023-03-22T08:32:18.531Z,18.67
2023-03-22T08:34:46.025Z,15.80
2023-03-22T08:37:13.686Z,8.77
2023-03-22T08:39:40.930Z,15.10
2023-03-22T08:42:07.892Z,11.77
2023-03-22T08:44:34.862Z,17.23
2023-03-22T08:47:03.254Z,13.97
2023-03-22T08:49:31.437Z,14.67
2023-03-22T08:51:58.442Z,15.83
2023-03-22T08:54:28.108Z,18.80
2023-03-22T08:56:55.178Z,11.07
2023-03-22T08:59:22.130Z,10.00
2023-03-22T09:01:49.523Z,10.30
2023-03-22T09:04:18.649Z,12.67
2023-03-22T09:06:47.016Z,10.93
2023-03-22T09:09:14.733Z,10.83
2023-03-22T09:11:42.859Z,9.43
2023-03-22T09:14:10.802Z,12.57
2023-03-22T09:16:37.950Z,10.33
2023-03-22T09:19:05.006Z,14.33
2023-03-22T09:21:31.997Z,12.40
2023-03-22T09:23:59.044Z,14.33
2023-03-22T09:26:27.142Z,11.00
2023-03-22T09:28:54.259Z,14.70
2023-03-22T09:31:21.443Z,9.13
2023-03-22T09:33:48.431Z,16.10
2023-03-22T09:36:15.881Z,10.50
2023-03-22T09:38:43.011Z,11.43
2023-03-22T09:41:38.425Z,12.57
2023-03-22T09:44:22.635Z,9.37
2023-03-22T09:46:55.557Z,19.90
2023-03-22T09:49:50.493Z,10.53
2023-03-22T09:52:19.934Z,8.93
2023-03-22T09:54:47.476Z,12.33
2023-03-22T09:57:40.738Z,9.70
2023-03-22T10:00:27.147Z,10.37
2023-03-22T10:03:17.269Z,12.27
2023-03-22T10:05:57.825Z,11.77
2023-03-22T10:08:39.677Z,11.27
2023-03-22T10:11:30.274Z,15.70
2023-03-22T10:14:35.357Z,8.40
2023-03-22T10:17:10.212Z,14.63
2023-03-22T10:20:08.965Z,11.60
2023-03-22T10:22:43.977Z,10.07
2023-03-22T10:25:19.771Z,15.10
2023-03-22T10:27:50.697Z,13.70
2023-03-22T10:30:30.508Z,17.33
2023-03-22T10:33:03.472Z,14.73
2023-03-22T10:35:32.172Z,8.17
2023-03-22T10:38:04.530Z,17.67
2023-03-22T10:40:34.914Z,14.90
2023-03-22T10:43:24.253Z,17.37
2023-03-22T10:45:53.956Z,16.53
2023-03-22T10:48:33.243Z,12.87
2023-03-22T10:51:01.473Z,13.90
2023-03-22T10:53:40.349Z,17.03
2023-03-22T10:56:15.760Z,14.33
2023-03-22T10:58:43.575Z,11.70
2023-03-22T11:01:36.940Z,9.23
2023-03-22T11:04:04.086Z,17.63
2023-03-22T11:06:35.362Z,15.57
2023-03-22T11:09:19.917Z,12.30
2023-03-22T11:11:59.263Z,7.80
2023-03-22T11:14:42.395Z,11.27
2023-03-22T11:17:14.619Z,9.23
2023-03-22T11:19:55.765Z,11.03
2023-03-22T11:22:33.311Z,11.83
2023-03-22T11:25:02.387Z,10.70
2023-03-22T11:27:33.137Z,11.17
2023-03-22T11:30:20.365Z,6.33
2023-03-22T11:32:47.781Z,7.40
2023-03-22T11:35:16.655Z,12.37
2023-03-22T11:37:47.630Z,7.57
2023-03-22T11:40:22.776Z,12.47
2023-03-22T11:42:55.678Z,11.50
2023-03-22T11:45:36.156Z,13.40
2023-03-22T11:48:08.735Z,13.00
2023-03-22T11:50:39.868Z,9.73
2023-03-22T11:53:14.790Z,6.77
2023-03-22T11:55:43.149Z,7.00
2023-03-22T11:58:39.152Z,8.70
2023-03-22T12:01:11.006Z,9.50
2023-03-22T12:03:41.874Z,11.33
2023-03-22T12:06:33.455Z,13.60
2023-03-22T12:09:41.943Z,6.07
2023-03-22T12:12:17.912Z,8.53
2023-03-22T12:14:52.775Z,9.43
2023-03-22T12:17:48.059Z,10.30
2023-03-22T12:20:43.445Z,10.37
2023-03-22T12:23:18.401Z,8.97
2023-03-22T12:25:55.164Z,7.67
2023-03-22T12:28:29.110Z,11.87
2023-03-22T12:30:58.599Z,8.43
2023-03-22T12:33:35.264Z,10.27
2023-03-22T12:36:05.372Z,12.47
2023-03-22T12:38:49.271Z,12.97
2023-03-22T12:41:24.723Z,9.90
2023-03-22T12:44:28.345Z,12.20
2023-03-22T12:47:03.563Z,10.37
2023-03-22T12:49:55.113Z,5.37
2023-03-22T12:52:49.171Z,6.80
2023-03-22T12:55:33.419Z,10.70
2023-03-22T12:58:01.722Z,10.23
2023-03-22T13:00:33.407Z,7.60
2023-03-22T13:03:17.343Z,11.03
2023-03-22T13:06:02.062Z,6.43
2023-03-22T13:09:15.916Z,12.30
2023-03-22T13:12:08.237Z,8.97
2023-03-22T13:14:53.248Z,8.27
2023-03-22T13:17:23.035Z,9.23
2023-03-22T13:19:59.312Z,10.30
2023-03-22T13:22:31.960Z,7.13
2023-03-22T13:25:14.771Z,11.33
2023-03-22T13:28:26.456Z,8.27
2023-03-22T13:30:57.843Z,10.30
2023-03-22T13:33:27.777Z,10.33
2023-03-22T13:35:56.927Z,9.33
2023-03-22T13:38:35.628Z,8.70
2023-03-22T13:41:34.674Z,11.50
2023-03-22T13:44:21.478Z,9.87
2023-03-22T13:46:58.120Z,9.30
2023-03-22T13:49:31.347Z,10.57
2023-03-22T13:52:00.961Z,7.53
2023-03-22T13:54:42.705Z,10.33
2023-03-22T13:57:49.217Z,7.10
2023-03-22T14:00:34.298Z,12.73
2023-03-22T14:03:28.743Z,10.83
2023-03-22T14:06:24.265Z,10.23
2023-03-22T14:08:59.192Z,9.70
2023-03-22T14:11:38.074Z,9.73
2023-03-22T14:14:22.361Z,13.67
2023-03-22T14:16:53.786Z,13.97
2023-03-22T14:19:25.102Z,14.20
